sensor_id;sensor_type;location;lat;lon;timestamp;pressure;altitude;pressure_sealevel;temperature
62706;BMP280;51050;51.784;9.372;2022-09-01T00:01:48;101093.97;;;13.68
62706;BMP280;51050;51.784;9.372;2022-09-01T00:04:15;101097.19;;;13.75
62706;BMP280;51050;51.784;9.372;2022-09-01T00:06:41;101087.03;;;13.70
62706;BMP280;51050;51.784;9.372;2022-09-01T00:09:08;101090.28;;;13.43
62706;BMP280;51050;51.784;9.372;2022-09-01T00:11:34;101087.00;;;13.41
62706;BMP280;51050;51.784;9.372;2022-09-01T00:13:59;101084.41;;;13.55
62706;BMP280;51050;51.784;9.372;2022-09-01T00:16:25;101089.13;;;13.49
62706;BMP280;51050;51.784;9.372;2022-09-01T00:18:52;101087.16;;;13.55
62706;BMP280;51050;51.784;9.372;2022-09-01T00:21:18;101083.88;;;13.53
62706;BMP280;51050;51.784;9.372;2022-09-01T00:23:43;101087.50;;;13.48
62706;BMP280;51050;51.784;9.372;2022-09-01T00:26:09;101084.19;;;13.46
62706;BMP280;51050;51.784;9.372;2022-09-01T00:28:35;101095.78;;;13.43
62706;BMP280;51050;51.784;9.372;2022-09-01T00:31:01;101090.03;;;13.40
62706;BMP280;51050;51.784;9.372;2022-09-01T00:33:28;101101.63;;;13.32
62706;BMP280;51050;51.784;9.372;2022-09-01T00:35:53;101095.03;;;13.27
62706;BMP280;51050;51.784;9.372;2022-09-01T00:38:18;101089.59;;;13.12
62706;BMP280;51050;51.784;9.372;2022-09-01T00:40:43;101092.22;;;12.83
62706;BMP280;51050;51.784;9.372;2022-09-01T00:43:10;101098.47;;;12.94
62706;BMP280;51050;51.784;9.372;2022-09-01T00:45:35;101088.56;;;12.98
62706;BMP280;51050;51.784;9.372;2022-09-01T00:48:00;101093.25;;;12.98
62706;BMP280;51050;51.784;9.372;2022-09-01T00:50:29;101090.50;;;12.98
62706;BMP280;51050;51.784;9.372;2022-09-01T00:52:54;101092.97;;;12.94
62706;BMP280;51050;51.784;9.372;2022-09-01T00:55:21;101085.31;;;12.91
62706;BMP280;51050;51.784;9.372;2022-09-01T00:57:47;101081.84;;;12.60
62706;BMP280;51050;51.784;9.372;2022-09-01T01:00:16;101087.03;;;12.72
62706;BMP280;51050;51.784;9.372;2022-09-01T01:02:42;101086.50;;;12.70
62706;BMP280;51050;51.784;9.372;2022-09-01T01:05:09;101079.38;;;12.64
62706;BMP280;51050;51.784;9.372;2022-09-01T01:07:34;101090.63;;;12.67
62706;BMP280;51050;51.784;9.372;2022-09-01T01:10:02;101083.78;;;12.60
62706;BMP280;51050;51.784;9.372;2022-09-01T01:12:28;101078.06;;;12.46
62706;BMP280;51050;51.784;9.372;2022-09-01T01:14:54;101083.81;;;12.55
62706;BMP280;51050;51.784;9.372;2022-09-01T01:17:21;101077.22;;;12.56
62706;BMP280;51050;51.784;9.372;2022-09-01T01:22:34;101081.66;;;12.41
62706;BMP280;51050;51.784;9.372;2022-09-01T01:25:21;101082.75;;;12.35
62706;BMP280;51050;51.784;9.372;2022-09-01T01:27:48;101070.66;;;12.41
62706;BMP280;51050;51.784;9.372;2022-09-01T01:30:14;101080.56;;;12.27
62706;BMP280;51050;51.784;9.372;2022-09-01T01:32:43;101075.06;;;12.27
62706;BMP280;51050;51.784;9.372;2022-09-01T01:35:10;101081.41;;;12.33
62706;BMP280;51050;51.784;9.372;2022-09-01T01:37:39;101080.84;;;12.31
62706;BMP280;51050;51.784;9.372;2022-09-01T01:40:04;101077.56;;;12.24
62706;BMP280;51050;51.784;9.372;2022-09-01T01:42:31;101082.22;;;12.33
62706;BMP280;51050;51.784;9.372;2022-09-01T01:44:56;101085.50;;;12.35
62706;BMP280;51050;51.784;9.372;2022-09-01T01:47:22;101079.19;;;12.30
62706;BMP280;51050;51.784;9.372;2022-09-01T01:49:47;101079.22;;;12.09
62706;BMP280;51050;51.784;9.372;2022-09-01T01:52:12;101076.75;;;12.18
62706;BMP280;51050;51.784;9.372;2022-09-01T01:54:42;101085.53;;;12.15
62706;BMP280;51050;51.784;9.372;2022-09-01T01:57:09;101081.69;;;12.16
62706;BMP280;51050;51.784;9.372;2022-09-01T01:59:35;101084.97;;;12.08
62706;BMP280;51050;51.784;9.372;2022-09-01T02:02:02;101080.63;;;11.77
62706;BMP280;51050;51.784;9.372;2022-09-01T02:04:27;101079.78;;;11.86
62706;BMP280;51050;51.784;9.372;2022-09-01T02:06:55;101085.56;;;11.85
62706;BMP280;51050;51.784;9.372;2022-09-01T02:09:20;101087.75;;;11.93
62706;BMP280;51050;51.784;9.372;2022-09-01T02:11:47;101086.66;;;11.94
62706;BMP280;51050;51.784;9.372;2022-09-01T02:14:13;101091.56;;;11.92
62706;BMP280;51050;51.784;9.372;2022-09-01T02:16:40;101092.13;;;11.94
62706;BMP280;51050;51.784;9.372;2022-09-01T02:19:05;101090.47;;;11.93
62706;BMP280;51050;51.784;9.372;2022-09-01T02:21:31;101081.72;;;11.75
62706;BMP280;51050;51.784;9.372;2022-09-01T02:24:00;101079.25;;;11.79
62706;BMP280;51050;51.784;9.372;2022-09-01T02:26:27;101087.19;;;11.75
62706;BMP280;51050;51.784;9.372;2022-09-01T02:28:55;101083.06;;;11.73
62706;BMP280;51050;51.784;9.372;2022-09-01T02:31:20;101075.63;;;11.58
62706;BMP280;51050;51.784;9.372;2022-09-01T02:33:46;101084.94;;;11.57
62706;BMP280;51050;51.784;9.372;2022-09-01T02:36:14;101081.41;;;11.57
62706;BMP280;51050;51.784;9.372;2022-09-01T02:38:40;101074.28;;;11.56
62706;BMP280;51050;51.784;9.372;2022-09-01T02:41:10;101085.78;;;11.58
62706;BMP280;51050;51.784;9.372;2022-09-01T02:43:36;101086.34;;;11.55
62706;BMP280;51050;51.784;9.372;2022-09-01T02:46:03;101076.47;;;11.54
62706;BMP280;51050;51.784;9.372;2022-09-01T02:48:35;101077.53;;;11.43
62706;BMP280;51050;51.784;9.372;2022-09-01T02:51:20;101075.63;;;11.38
62706;BMP280;51050;51.784;9.372;2022-09-01T02:53:46;101080.03;;;11.44
62706;BMP280;51050;51.784;9.372;2022-09-01T02:56:17;101078.94;;;11.45
62706;BMP280;51050;51.784;9.372;2022-09-01T02:58:43;101071.81;;;11.39
62706;BMP280;51050;51.784;9.372;2022-09-01T03:01:19;101068.22;;;11.44
62706;BMP280;51050;51.784;9.372;2022-09-01T03:03:48;101069.88;;;11.45
62706;BMP280;51050;51.784;9.372;2022-09-01T03:06:14;101063.03;;;11.37
62706;BMP280;51050;51.784;9.372;2022-09-01T03:08:42;101062.47;;;11.30
62706;BMP280;51050;51.784;9.372;2022-09-01T03:11:07;101061.31;;;11.16
62706;BMP280;51050;51.784;9.372;2022-09-01T03:13:35;101062.16;;;11.21
62706;BMP280;51050;51.784;9.372;2022-09-01T03:16:01;101052.31;;;11.20
62706;BMP280;51050;51.784;9.372;2022-09-01T03:18:26;101058.88;;;11.19
62706;BMP280;51050;51.784;9.372;2022-09-01T03:20:51;101063.00;;;11.22
62706;BMP280;51050;51.784;9.372;2022-09-01T03:23:17;101063.78;;;11.12
62706;BMP280;51050;51.784;9.372;2022-09-01T03:25:43;101055.84;;;11.11
62706;BMP280;51050;51.784;9.372;2022-09-01T03:28:10;101068.97;;;11.09
62706;BMP280;51050;51.784;9.372;2022-09-01T03:30:37;101062.41;;;11.05
62706;BMP280;51050;51.784;9.372;2022-09-01T03:33:03;101062.94;;;10.96
62706;BMP280;51050;51.784;9.372;2022-09-01T03:35:29;101059.38;;;10.96
62706;BMP280;51050;51.784;9.372;2022-09-01T03:37:56;101063.47;;;10.93
62706;BMP280;51050;51.784;9.372;2022-09-01T03:40:23;101063.19;;;10.95
62706;BMP280;51050;51.784;9.372;2022-09-01T03:42:50;101060.97;;;10.87
62706;BMP280;51050;51.784;9.372;2022-09-01T03:45:16;101061.22;;;10.80
62706;BMP280;51050;51.784;9.372;2022-09-01T03:47:44;101057.69;;;10.80
62706;BMP280;51050;51.784;9.372;2022-09-01T03:50:12;101064.81;;;10.86
62706;BMP280;51050;51.784;9.372;2022-09-01T03:52:44;101062.31;;;10.79
62706;BMP280;51050;51.784;9.372;2022-09-01T03:55:09;101061.22;;;10.80
62706;BMP280;51050;51.784;9.372;2022-09-01T03:57:34;101067.25;;;10.77
62706;BMP280;51050;51.784;9.372;2022-09-01T04:00:06;101069.16;;;10.77
62706;BMP280;51050;51.784;9.372;2022-09-01T04:02:37;101061.47;;;10.74
62706;BMP280;51050;51.784;9.372;2022-09-01T04:05:02;101061.72;;;10.67
62706;BMP280;51050;51.784;9.372;2022-09-01T04:07:27;101065.81;;;10.65
62706;BMP280;51050;51.784;9.372;2022-09-01T04:09:52;101068.28;;;10.61
62706;BMP280;51050;51.784;9.372;2022-09-01T04:12:18;101065.53;;;10.61
62706;BMP280;51050;51.784;9.372;2022-09-01T04:14:43;101068.78;;;10.58
62706;BMP280;51050;51.784;9.372;2022-09-01T04:17:08;101067.41;;;10.55
62706;BMP280;51050;51.784;9.372;2022-09-01T04:19:53;101070.13;;;10.45
62706;BMP280;51050;51.784;9.372;2022-09-01T04:22:18;101078.03;;;10.47
62706;BMP280;51050;51.784;9.372;2022-09-01T04:24:45;101077.78;;;10.48
62706;BMP280;51050;51.784;9.372;2022-09-01T04:27:11;101066.56;;;10.50
62706;BMP280;51050;51.784;9.372;2022-09-01T04:29:36;101071.72;;;10.41
62706;BMP280;51050;51.784;9.372;2022-09-01T04:32:06;101071.69;;;10.36
62706;BMP280;51050;51.784;9.372;2022-09-01T04:34:34;101067.88;;;10.37
62706;BMP280;51050;51.784;9.372;2022-09-01T04:37:14;101070.88;;;10.41
62706;BMP280;51050;51.784;9.372;2022-09-01T04:39:42;101079.66;;;10.38
62706;BMP280;51050;51.784;9.372;2022-09-01T04:42:12;101075.78;;;10.39
62706;BMP280;51050;51.784;9.372;2022-09-01T04:44:38;101082.41;;;10.43
62706;BMP280;51050;51.784;9.372;2022-09-01T04:47:03;101077.19;;;10.36
62706;BMP280;51050;51.784;9.372;2022-09-01T04:49:34;101074.72;;;10.40
62706;BMP280;51050;51.784;9.372;2022-09-01T04:52:01;101073.88;;;10.34
62706;BMP280;51050;51.784;9.372;2022-09-01T04:54:26;101073.03;;;10.29
62706;BMP280;51050;51.784;9.372;2022-09-01T04:56:51;101074.69;;;10.35
62706;BMP280;51050;51.784;9.372;2022-09-01T04:59:19;101080.13;;;10.30
62706;BMP280;51050;51.784;9.372;2022-09-01T05:01:44;101072.47;;;10.32
62706;BMP280;51050;51.784;9.372;2022-09-01T05:04:30;101078.00;;;10.42
62706;BMP280;51050;51.784;9.372;2022-09-01T05:06:57;101069.59;;;10.53
62706;BMP280;51050;51.784;9.372;2022-09-01T05:09:30;101068.53;;;10.59
62706;BMP280;51050;51.784;9.372;2022-09-01T05:11:56;101076.50;;;10.66
62706;BMP280;51050;51.784;9.372;2022-09-01T05:14:22;101081.41;;;10.64
62706;BMP280;51050;51.784;9.372;2022-09-01T05:16:48;101080.63;;;10.74
62706;BMP280;51050;51.784;9.372;2022-09-01T05:19:14;101077.88;;;10.69
62706;BMP280;51050;51.784;9.372;2022-09-01T05:21:41;101078.16;;;10.72
62706;BMP280;51050;51.784;9.372;2022-09-01T05:24:10;101074.09;;;10.80
62706;BMP280;51050;51.784;9.372;2022-09-01T05:26:35;101081.19;;;10.76
62706;BMP280;51050;51.784;9.372;2022-09-01T05:29:05;101077.63;;;10.75
62706;BMP280;51050;51.784;9.372;2022-09-01T05:31:37;101075.72;;;10.81
62706;BMP280;51050;51.784;9.372;2022-09-01T05:34:03;101069.47;;;10.85
62706;BMP280;51050;51.784;9.372;2022-09-01T05:36:28;101071.38;;;10.90
62706;BMP280;51050;51.784;9.372;2022-09-01T05:38:57;101077.47;;;10.97
62706;BMP280;51050;51.784;9.372;2022-09-01T05:41:23;101076.31;;;10.88
62706;BMP280;51050;51.784;9.372;2022-09-01T05:43:48;101077.47;;;10.97
62706;BMP280;51050;51.784;9.372;2022-09-01T05:46:17;101066.50;;;10.97
62706;BMP280;51050;51.784;9.372;2022-09-01T05:48:43;101070.88;;;11.03
62706;BMP280;51050;51.784;9.372;2022-09-01T05:51:09;101071.72;;;11.04
62706;BMP280;51050;51.784;9.372;2022-09-01T05:53:35;101076.06;;;10.99
62706;BMP280;51050;51.784;9.372;2022-09-01T05:56:00;101076.09;;;11.15
62706;BMP280;51050;51.784;9.372;2022-09-01T05:58:32;101070.69;;;11.30
62706;BMP280;51050;51.784;9.372;2022-09-01T06:00:58;101073.16;;;11.42
62706;BMP280;51050;51.784;9.372;2022-09-01T06:03:24;101072.34;;;11.46
62706;BMP280;51050;51.784;9.372;2022-09-01T06:05:52;101066.59;;;11.53
62706;BMP280;51050;51.784;9.372;2022-09-01T06:08:18;101070.16;;;11.53
62706;BMP280;51050;51.784;9.372;2022-09-01T06:10:44;101079.47;;;11.57
62706;BMP280;51050;51.784;9.372;2022-09-01T06:13:09;101076.47;;;11.64
62706;BMP280;51050;51.784;9.372;2022-09-01T06:15:36;101066.59;;;11.63
62706;BMP280;51050;51.784;9.372;2022-09-01T06:18:03;101071.53;;;11.61
62706;BMP280;51050;51.784;9.372;2022-09-01T06:20:29;101078.94;;;11.65
62706;BMP280;51050;51.784;9.372;2022-09-01T06:22:54;101074.56;;;11.69
62706;BMP280;51050;51.784;9.372;2022-09-01T06:25:20;101072.38;;;11.77
62706;BMP280;51050;51.784;9.372;2022-09-01T06:27:45;101072.09;;;11.83
62706;BMP280;51050;51.784;9.372;2022-09-01T06:30:12;101068.81;;;11.86
62706;BMP280;51050;51.784;9.372;2022-09-01T06:32:42;101070.75;;;11.91
62706;BMP280;51050;51.784;9.372;2022-09-01T06:35:11;101077.31;;;11.95
62706;BMP280;51050;51.784;9.372;2022-09-01T06:37:37;101070.19;;;11.99
62706;BMP280;51050;51.784;9.372;2022-09-01T06:40:02;101071.00;;;12.04
62706;BMP280;51050;51.784;9.372;2022-09-01T06:42:27;101074.56;;;12.10
62706;BMP280;51050;51.784;9.372;2022-09-01T06:44:53;101078.41;;;12.14
62706;BMP280;51050;51.784;9.372;2022-09-01T06:47:19;101079.75;;;12.17
62706;BMP280;51050;51.784;9.372;2022-09-01T06:49:45;101070.16;;;12.19
62706;BMP280;51050;51.784;9.372;2022-09-01T06:52:10;101077.28;;;12.25
62706;BMP280;51050;51.784;9.372;2022-09-01T06:54:36;101082.78;;;12.30
62706;BMP280;51050;51.784;9.372;2022-09-01T06:57:03;101072.03;;;12.34
62706;BMP280;51050;51.784;9.372;2022-09-01T06:59:28;101068.75;;;12.37
62706;BMP280;51050;51.784;9.372;2022-09-01T07:01:57;101073.13;;;12.43
62706;BMP280;51050;51.784;9.372;2022-09-01T07:04:25;101075.59;;;12.49
62706;BMP280;51050;51.784;9.372;2022-09-01T07:06:53;101066.22;;;12.50
62706;BMP280;51050;51.784;9.372;2022-09-01T07:09:18;101072.25;;;12.58
62706;BMP280;51050;51.784;9.372;2022-09-01T07:11:43;101076.63;;;12.64
62706;BMP280;51050;51.784;9.372;2022-09-01T07:14:09;101081.00;;;12.70
62706;BMP280;51050;51.784;9.372;2022-09-01T07:16:35;101083.75;;;12.75
62706;BMP280;51050;51.784;9.372;2022-09-01T07:19:04;101085.38;;;12.76
62706;BMP280;51050;51.784;9.372;2022-09-01T07:21:30;101082.06;;;12.79
62706;BMP280;51050;51.784;9.372;2022-09-01T07:23:58;101083.16;;;12.83
62706;BMP280;51050;51.784;9.372;2022-09-01T07:26:25;101085.88;;;12.88
62706;BMP280;51050;51.784;9.372;2022-09-01T07:28:50;101086.16;;;12.92
62706;BMP280;51050;51.784;9.372;2022-09-01T07:31:20;101081.44;;;12.97
62706;BMP280;51050;51.784;9.372;2022-09-01T07:33:47;101085.81;;;12.98
62706;BMP280;51050;51.784;9.372;2022-09-01T07:36:13;101083.03;;;13.03
62706;BMP280;51050;51.784;9.372;2022-09-01T07:38:38;101077.53;;;13.08
62706;BMP280;51050;51.784;9.372;2022-09-01T07:41:03;101078.88;;;13.11
62706;BMP280;51050;51.784;9.372;2022-09-01T07:43:29;101076.13;;;13.11
62706;BMP280;51050;51.784;9.372;2022-09-01T07:45:55;101078.63;;;13.17
62706;BMP280;51050;51.784;9.372;2022-09-01T07:48:23;101071.97;;;13.23
62706;BMP280;51050;51.784;9.372;2022-09-01T07:50:51;101077.16;;;13.30
62706;BMP280;51050;51.784;9.372;2022-09-01T07:53:21;101080.69;;;13.36
62706;BMP280;51050;51.784;9.372;2022-09-01T07:55:48;101074.88;;;13.42
62706;BMP280;51050;51.784;9.372;2022-09-01T07:58:15;101087.22;;;13.50
62706;BMP280;51050;51.784;9.372;2022-09-01T08:00:40;101071.25;;;13.52
62706;BMP280;51050;51.784;9.372;2022-09-01T08:03:10;101084.41;;;13.60
62706;BMP280;51050;51.784;9.372;2022-09-01T08:05:35;101078.78;;;13.70
62706;BMP280;51050;51.784;9.372;2022-09-01T08:08:00;101081.31;;;13.67
62706;BMP280;51050;51.784;9.372;2022-09-01T08:10:25;101074.16;;;13.66
62706;BMP280;51050;51.784;9.372;2022-09-01T08:12:50;101073.53;;;13.74
62706;BMP280;51050;51.784;9.372;2022-09-01T08:15:15;101067.69;;;13.85
62706;BMP280;51050;51.784;9.372;2022-09-01T08:17:41;101067.28;;;13.97
62706;BMP280;51050;51.784;9.372;2022-09-01T08:20:06;101070.22;;;14.06
62706;BMP280;51050;51.784;9.372;2022-09-01T08:22:33;101074.41;;;14.03
62706;BMP280;51050;51.784;9.372;2022-09-01T08:24:59;101071.88;;;14.07
62706;BMP280;51050;51.784;9.372;2022-09-01T08:27:24;101068.56;;;14.10
62706;BMP280;51050;51.784;9.372;2022-09-01T08:29:49;101066.84;;;14.14
62706;BMP280;51050;51.784;9.372;2022-09-01T08:32:14;101067.84;;;14.23
62706;BMP280;51050;51.784;9.372;2022-09-01T08:34:39;101065.00;;;14.33
62706;BMP280;51050;51.784;9.372;2022-09-01T08:37:07;101065.22;;;14.42
62706;BMP280;51050;51.784;9.372;2022-09-01T08:39:32;101068.44;;;14.49
62706;BMP280;51050;51.784;9.372;2022-09-01T08:42:02;101070.84;;;14.55
62706;BMP280;51050;51.784;9.372;2022-09-01T08:44:43;101064.19;;;14.61
62706;BMP280;51050;51.784;9.372;2022-09-01T08:47:11;101063.41;;;14.80
62706;BMP280;51050;51.784;9.372;2022-09-01T08:49:38;101061.94;;;14.87
62706;BMP280;51050;51.784;9.372;2022-09-01T08:56:56;101064.09;;;15.09
62706;BMP280;51050;51.784;9.372;2022-09-01T08:59:21;101068.22;;;15.30
62706;BMP280;51050;51.784;9.372;2022-09-01T09:04:16;101062.56;;;15.22
62706;BMP280;51050;51.784;9.372;2022-09-01T09:07:01;101063.00;;;15.47
62706;BMP280;51050;51.784;9.372;2022-09-01T09:09:34;101069.94;;;15.45
62706;BMP280;51050;51.784;9.372;2022-09-01T09:12:14;101068.72;;;15.51
62706;BMP280;51050;51.784;9.372;2022-09-01T09:14:58;101065.59;;;15.58
62706;BMP280;51050;51.784;9.372;2022-09-01T09:17:28;101066.50;;;15.72
62706;BMP280;51050;51.784;9.372;2022-09-01T09:19:54;101061.03;;;15.85
62706;BMP280;51050;51.784;9.372;2022-09-01T09:22:19;101064.75;;;16.08
62706;BMP280;51050;51.784;9.372;2022-09-01T09:30:00;101059.84;;;16.05
62706;BMP280;51050;51.784;9.372;2022-09-01T09:37:47;101047.69;;;16.06
62706;BMP280;51050;51.784;9.372;2022-09-01T09:40:13;101048.00;;;16.18
62706;BMP280;51050;51.784;9.372;2022-09-01T09:42:41;101049.47;;;16.30
62706;BMP280;51050;51.784;9.372;2022-09-01T09:47:50;101043.34;;;16.46
62706;BMP280;51050;51.784;9.372;2022-09-01T09:52:45;101052.81;;;16.13
62706;BMP280;51050;51.784;9.372;2022-09-01T09:55:18;101049.75;;;16.14
62706;BMP280;51050;51.784;9.372;2022-09-01T09:57:45;101050.34;;;16.11
62706;BMP280;51050;51.784;9.372;2022-09-01T10:00:22;101049.47;;;16.30
62706;BMP280;51050;51.784;9.372;2022-09-01T10:02:55;101031.13;;;16.34
62706;BMP280;51050;51.784;9.372;2022-09-01T10:05:31;101041.28;;;16.24
62706;BMP280;51050;51.784;9.372;2022-09-01T10:07:57;101037.19;;;16.36
62706;BMP280;51050;51.784;9.372;2022-09-01T10:13:08;101030.41;;;16.42
62706;BMP280;51050;51.784;9.372;2022-09-01T10:15:34;101034.94;;;16.38
62706;BMP280;51050;51.784;9.372;2022-09-01T10:18:05;101031.56;;;16.41
62706;BMP280;51050;51.784;9.372;2022-09-01T10:20:31;101033.81;;;16.39
62706;BMP280;51050;51.784;9.372;2022-09-01T10:22:58;101028.19;;;16.44
62706;BMP280;51050;51.784;9.372;2022-09-01T10:25:25;101028.19;;;16.44
62706;BMP280;51050;51.784;9.372;2022-09-01T10:27:51;101033.19;;;16.55
62706;BMP280;51050;51.784;9.372;2022-09-01T10:30:19;101018.03;;;16.53
62706;BMP280;51050;51.784;9.372;2022-09-01T10:35:16;101015.94;;;16.63
62706;BMP280;51050;51.784;9.372;2022-09-01T10:37:42;101016.59;;;16.96
62706;BMP280;51050;51.784;9.372;2022-09-01T10:40:09;101012.47;;;17.08
62706;BMP280;51050;51.784;9.372;2022-09-01T10:42:34;101014.53;;;17.02
62706;BMP280;51050;51.784;9.372;2022-09-01T10:44:59;101006.56;;;17.00
62706;BMP280;51050;51.784;9.372;2022-09-01T10:47:32;101017.28;;;17.16
62706;BMP280;51050;51.784;9.372;2022-09-01T10:49:59;101006.88;;;17.21
62706;BMP280;51050;51.784;9.372;2022-09-01T11:15:51;101003.66;;;17.86
62706;BMP280;51050;51.784;9.372;2022-09-01T11:30:17;101008.44;;;17.50
62706;BMP280;51050;51.784;9.372;2022-09-01T11:32:49;100998.28;;;17.45
62706;BMP280;51050;51.784;9.372;2022-09-01T11:35:17;100996.25;;;17.73
62706;BMP280;51050;51.784;9.372;2022-09-01T11:37:47;100991.88;;;18.03
62706;BMP280;51050;51.784;9.372;2022-09-01T11:40:17;100997.41;;;18.03
62706;BMP280;51050;51.784;9.372;2022-09-01T11:42:44;101003.38;;;17.96
62706;BMP280;51050;51.784;9.372;2022-09-01T11:45:27;100996.84;;;17.92
62706;BMP280;51050;51.784;9.372;2022-09-01T11:47:55;101000.91;;;17.86
62706;BMP280;51050;51.784;9.372;2022-09-01T11:50:29;100998.91;;;17.87
62706;BMP280;51050;51.784;9.372;2022-09-01T11:52:57;100997.56;;;18.06
62706;BMP280;51050;51.784;9.372;2022-09-01T11:55:27;100997.25;;;18.08
62706;BMP280;51050;51.784;9.372;2022-09-01T11:57:53;101009.00;;;18.13
62706;BMP280;51050;51.784;9.372;2022-09-01T12:00:24;101004.31;;;18.23
62706;BMP280;51050;51.784;9.372;2022-09-01T12:02:50;101002.00;;;18.16
62706;BMP280;51050;51.784;9.372;2022-09-01T12:05:25;101002.53;;;18.18
62706;BMP280;51050;51.784;9.372;2022-09-01T12:07:51;101000.22;;;18.11
62706;BMP280;51050;51.784;9.372;2022-09-01T12:10:29;101001.78;;;18.04
62706;BMP280;51050;51.784;9.372;2022-09-01T12:12:59;101000.78;;;18.00
62706;BMP280;51050;51.784;9.372;2022-09-01T12:15:24;101000.75;;;17.91
62706;BMP280;51050;51.784;9.372;2022-09-01T12:17:50;100999.41;;;17.89
62706;BMP280;51050;51.784;9.372;2022-09-01T12:22:44;101012.91;;;17.82
62706;BMP280;51050;51.784;9.372;2022-09-01T12:25:16;100996.81;;;17.84
62706;BMP280;51050;51.784;9.372;2022-09-01T12:27:42;100994.13;;;18.01
62706;BMP280;51050;51.784;9.372;2022-09-01T12:30:07;100994.47;;;18.08
62706;BMP280;51050;51.784;9.372;2022-09-01T12:32:32;101004.28;;;18.14
62706;BMP280;51050;51.784;9.372;2022-09-01T12:34:59;100996.50;;;18.25
62706;BMP280;51050;51.784;9.372;2022-09-01T12:37:25;100999.63;;;18.32
62706;BMP280;51050;51.784;9.372;2022-09-01T12:39:52;100998.34;;;18.38
62706;BMP280;51050;51.784;9.372;2022-09-01T12:44:45;100991.44;;;18.58
62706;BMP280;51050;51.784;9.372;2022-09-01T12:47:12;100981.34;;;18.62
62706;BMP280;51050;51.784;9.372;2022-09-01T12:54:34;100977.16;;;19.16
62706;BMP280;51050;51.784;9.372;2022-09-01T12:57:00;100969.94;;;19.41
62706;BMP280;51050;51.784;9.372;2022-09-01T12:59:25;100974.84;;;19.44
62706;BMP280;51050;51.784;9.372;2022-09-01T13:01:51;100967.16;;;19.41
62706;BMP280;51050;51.784;9.372;2022-09-01T13:06:48;100966.22;;;19.54
62706;BMP280;51050;51.784;9.372;2022-09-01T13:09:14;100963.25;;;20.82
62706;BMP280;51050;51.784;9.372;2022-09-01T13:11:39;100957.69;;;21.89
62706;BMP280;51050;51.784;9.372;2022-09-01T13:14:06;100947.88;;;22.77
62706;BMP280;51050;51.784;9.372;2022-09-01T13:16:32;100940.44;;;23.49
62706;BMP280;51050;51.784;9.372;2022-09-01T13:18:57;100939.03;;;22.62
62706;BMP280;51050;51.784;9.372;2022-09-01T13:21:22;100940.63;;;21.90
62706;BMP280;51050;51.784;9.372;2022-09-01T13:23:48;100941.47;;;22.03
62706;BMP280;51050;51.784;9.372;2022-09-01T13:26:14;100938.34;;;21.60
62706;BMP280;51050;51.784;9.372;2022-09-01T13:28:39;100936.56;;;20.81
62706;BMP280;51050;51.784;9.372;2022-09-01T13:31:04;100931.34;;;20.20
62706;BMP280;51050;51.784;9.372;2022-09-01T13:33:30;100933.31;;;20.20
62706;BMP280;51050;51.784;9.372;2022-09-01T13:35:55;100923.09;;;20.03
62706;BMP280;51050;51.784;9.372;2022-09-01T13:38:20;100931.31;;;20.29
62706;BMP280;51050;51.784;9.372;2022-09-01T13:40:46;100923.13;;;20.32
62706;BMP280;51050;51.784;9.372;2022-09-01T13:43:12;100921.72;;;20.18
62706;BMP280;51050;51.784;9.372;2022-09-01T13:45:38;100920.06;;;20.17
62706;BMP280;51050;51.784;9.372;2022-09-01T13:48:04;100917.81;;;20.10
62706;BMP280;51050;51.784;9.372;2022-09-01T13:50:29;100916.47;;;20.16
62706;BMP280;51050;51.784;9.372;2022-09-01T13:52:55;100909.66;;;20.14
62706;BMP280;51050;51.784;9.372;2022-09-01T13:55:27;100904.75;;;20.11
62706;BMP280;51050;51.784;9.372;2022-09-01T13:57:53;100910.25;;;20.19
62706;BMP280;51050;51.784;9.372;2022-09-01T14:00:20;100908.72;;;20.39
62706;BMP280;51050;51.784;9.372;2022-09-01T14:02:48;100910.22;;;20.28
62706;BMP280;51050;51.784;9.372;2022-09-01T14:05:33;100906.91;;;20.05
62706;BMP280;51050;51.784;9.372;2022-09-01T14:07:59;100909.94;;;19.83
62706;BMP280;51050;51.784;9.372;2022-09-01T14:10:25;100898.66;;;19.88
62706;BMP280;51050;51.784;9.372;2022-09-01T14:12:51;100894.56;;;19.85
62706;BMP280;51050;51.784;9.372;2022-09-01T14:15:17;100897.88;;;19.79
62706;BMP280;51050;51.784;9.372;2022-09-01T14:17:43;100903.13;;;19.72
62706;BMP280;51050;51.784;9.372;2022-09-01T14:20:13;100899.56;;;19.62
62706;BMP280;51050;51.784;9.372;2022-09-01T14:22:38;100905.75;;;19.59
62706;BMP280;51050;51.784;9.372;2022-09-01T14:25:05;100900.53;;;19.58
62706;BMP280;51050;51.784;9.372;2022-09-01T14:27:30;100903.19;;;19.54
62706;BMP280;51050;51.784;9.372;2022-09-01T14:29:55;100901.34;;;19.58
62706;BMP280;51050;51.784;9.372;2022-09-01T14:32:20;100896.59;;;19.68
62706;BMP280;51050;51.784;9.372;2022-09-01T14:34:50;100895.75;;;19.76
62706;BMP280;51050;51.784;9.372;2022-09-01T14:37:15;100890.16;;;19.84
62706;BMP280;51050;51.784;9.372;2022-09-01T14:39:40;100885.88;;;19.95
62706;BMP280;51050;51.784;9.372;2022-09-01T14:42:06;100889.25;;;20.01
62706;BMP280;51050;51.784;9.372;2022-09-01T14:44:34;100894.28;;;20.08
62706;BMP280;51050;51.784;9.372;2022-09-01T14:47:00;100887.41;;;20.14
62706;BMP280;51050;51.784;9.372;2022-09-01T14:49:25;100885.78;;;20.13
62706;BMP280;51050;51.784;9.372;2022-09-01T14:51:56;100892.47;;;20.12
62706;BMP280;51050;51.784;9.372;2022-09-01T14:54:22;100886.09;;;20.11
62706;BMP280;51050;51.784;9.372;2022-09-01T14:56:47;100887.41;;;20.14
62706;BMP280;51050;51.784;9.372;2022-09-01T14:59:12;100880.88;;;20.10
62706;BMP280;51050;51.784;9.372;2022-09-01T15:01:37;100885.56;;;20.18
62706;BMP280;51050;51.784;9.372;2022-09-01T15:04:02;100874.94;;;21.44
62706;BMP280;51050;51.784;9.372;2022-09-01T15:06:27;100869.22;;;22.35
62706;BMP280;51050;51.784;9.372;2022-09-01T15:08:52;100868.16;;;21.00
62706;BMP280;51050;51.784;9.372;2022-09-01T15:11:18;100875.47;;;20.43
62706;BMP280;51050;51.784;9.372;2022-09-01T15:13:44;100869.72;;;20.18
62706;BMP280;51050;51.784;9.372;2022-09-01T15:16:17;100867.47;;;20.12